Spring Mountain Youth Camp, Nevada Weather observations

Data are for 60 minute period ending at time listed.
 Day   Time   Solar   Ave.   Ave.  Ave.  Vector  Max.   Baro.   Total    
  of    of     Rad.   Air    Rel.  Wind   Wind   Wind  Press.  Precip.   
Year   Day            Temp.  Hum.  Speed  Dir.   Gust                    
2015   (PST)  Kw/m2    F      %     mph   deg.    mph    mb.     in.     
-------------------------------------------------------------------------
  57   15:00   0.63   40.7    31    4.9   268    18.0   785.5    0.00 
  57   16:00   0.45   40.2    34    3.8   216    16.6   785.3    0.00 
  57   17:00   0.17   37.9    34    2.9   158    10.6   785.2    0.00 
  57   18:00   0.01   34.5    32    2.7   140    11.5   785.3    0.00 
  57   19:00   0.00   33.8    31    2.7   266    10.4   785.4    0.00 
  57   20:00   0.00   32.2    39    3.5   139    10.2   785.5    0.00 
  57   21:00   0.00   30.7    45    4.2   147    11.6   785.5    0.00 
  57   22:00   0.00   30.3    48    2.6   147    11.0   785.5    0.00 
  57   23:00   0.00   28.5    54    1.7   134     5.4   785.3    0.00 
  58    0:00   0.00   28.0    55    2.6    15     5.9   785.0    0.00 
  58    1:00   0.00   30.4    38    2.0   343     5.8   784.8    0.00 
  58    2:00   0.00   30.3    32    1.8   338     6.2   784.5    0.00 
  58    3:00   0.00   27.9    44    2.9   356     9.1   784.1    0.00 
  58    4:00   0.00   27.9    46    2.2   350     6.7   783.7    0.00 
  58    5:00   0.00   29.2    43    2.6   338     6.2   783.4    0.00 
  58    6:00   0.00   26.1    53    2.9   344     5.9   783.2    0.00 
  58    7:00   0.02   26.4    55    2.7    85     6.2   783.3    0.00 
  58    8:00   0.21   30.1    49    3.8   149     8.9   783.2    0.00 
  58    9:00   0.29   32.4    47    3.0   159     8.5   783.2    0.00 
  58   10:00   0.57   34.0    46    5.7   155    13.2   783.1    0.00 
  58   11:00   0.50   34.9    47    3.4   170    12.3   782.9    0.00 
  58   12:00   0.33   33.4    51    6.7   167    15.3   782.4    0.00 
  58   13:00   0.26   32.5    55    7.4   161    14.6   781.9    0.00 
  58   14:00   0.29   33.2    54    8.9   159    16.0   781.2    0.00 

Return to Spring Mountain Youth Camp graphs page.


Western Regional Climate Center,wrcc@dri.edu